Kezdőlap
METAR-TAF:

METAR-TAF

Repülőterek :

Debrecen, Magyarország

Debreceni nemzetközi repülőtér

földrajzi szélesség: 47-29N, földrajzi hosszúság: 021-36E, magasság: 108 m

Jelenlegi meteorológiai megfigyelések

A jelentés 36 perccel ezelõtt készült, 17:15 UTC
Északi szél 12 kt
Hőmérséklet -7°C
Páratartalom 53%
Légköri nyomás 1022 hPa
Látótávolság 10 km, vagy több
felhőtlen 1500 m magasságban, és nincs gomolyfelhõ

METAR: LHDC 251715Z 01012KT CAVOK M07/M15 Q1022 NOSIG

Idő: 18:51 (17:51 UTC)

Előrejelzés

A jelentés 36 perccel ezelõtt készült, 17:15 UTC
Az előrejelzés 25-én 18 óra UTC és 26-én 03 óra UTC között érvényes
Észak-északkeleti szél 12 kt
Látótávolság 10 km, vagy több
felhőtlen 1500 m magasságban, és nincs gomolyfelhõ

TAF: LHDC 251715Z 2518/2603 02012KT CAVOK

Meteorológiai megfigyelések és előrejelzések több, mint 4000 repülőtéren (METAR és TAF jelentéseket).

A térképen piros és sárga pontok jelzik az elérhető meteorológiai állomásokat.

Mozgassa az egeret a pont fölött, hogy megjelenjen az állomás neve.

Azután kattintson az időjárási megfigyelések és előrejelzések megtekintéséhez.

A térkép megváltoztatása: kattintson a fekete keresztel jelölt zöld gombra ráközelítéshez, a vonallal jelölt zöld gombra távolításhoz, vagy a zöld nyilakra a szomszédos térképek eléréséhez.


METAR-TAF: